Time;durP1;ratioP1;P1;durP2;ratioP2;P2;SDS_P1;SDS_P2;PMS_P1;PMS_P2;Temp;Humidity;BMP_temperature;BMP_pressure;BME280_temperature;BME280_humidity;BME280_pressure;Samples;Min_cycle;Max_cycle;Signal;HPM_P1;HPM_P2
2021/06/30 00:01:54;;;;;;;82.20;75.85;;;;;;;;;;5034084;28;20367;-67
2021/06/30 00:04:22;;;;;;;79.95;73.95;;;;;;;;;;5035609;28;20516;-66
2021/06/30 00:06:49;;;;;;;82.90;76.70;;;;;;;;;;5035796;28;20026;-63
2021/06/30 00:09:17;;;;;;;78.05;72.18;;;;;;;;;;5035706;28;20083;-65
2021/06/30 00:11:44;;;;;;;78.20;72.22;;;;;;;;;;5035715;28;20454;-66
2021/06/30 00:14:13;;;;;;;77.20;71.20;;;;;;;;;;5035381;28;20100;-66
2021/06/30 00:16:41;;;;;;;77.57;71.53;;;;;;;;;;5034072;28;20091;-67
2021/06/30 00:19:10;;;;;;;80.57;74.57;;;;;;;;;;5035530;28;20025;-68
2021/06/30 00:21:37;;;;;;;74.75;69.00;;;;;;;;;;5035308;28;20029;-69
2021/06/30 00:24:05;;;;;;;76.75;70.47;;;;;;;;;;5035315;28;20158;-67
2021/06/30 00:26:32;;;;;;;74.93;68.60;;;;;;;;;;5035122;28;20036;-66
2021/06/30 00:28:59;;;;;;;74.60;68.68;;;;;;;;;;5035234;28;20028;-67
2021/06/30 00:31:26;;;;;;;72.63;66.63;;;;;;;;;;5034997;28;20042;-65
2021/06/30 00:33:54;;;;;;;76.10;69.88;;;;;;;;;;5033676;28;20501;-64
2021/06/30 00:36:21;;;;;;;72.68;66.63;;;;;;;;;;5033745;28;20025;-68
2021/06/30 00:38:48;;;;;;;69.82;64.10;;;;;;;;;;5035039;28;20509;-61
2021/06/30 00:41:15;;;;;;;69.13;63.35;;;;;;;;;;5034749;28;20044;-64
2021/06/30 00:43:42;;;;;;;77.88;71.30;;;;;;;;;;5034669;28;20393;-61
2021/06/30 00:46:09;;;;;;;83.82;77.07;;;;;;;;;;5034788;28;20028;-62
2021/06/30 00:48:39;;;;;;;92.95;85.57;;;;;;;;;;5034558;28;20026;-66
2021/06/30 00:51:07;;;;;;;87.07;80.22;;;;;;;;;;5034527;28;20113;-63
2021/06/30 00:53:34;;;;;;;87.22;80.60;;;;;;;;;;5034570;28;20393;-67
2021/06/30 00:56:01;;;;;;;85.63;79.13;;;;;;;;;;5034306;28;20017;-63
2021/06/30 00:58:28;;;;;;;86.75;79.75;;;;;;;;;;5034532;28;20024;-66
2021/06/30 01:00:55;;;;;;;86.55;79.47;;;;;;;;;;5034384;28;20401;-64
2021/06/30 01:03:22;;;;;;;84.50;78.07;;;;;;;;;;5034244;28;20101;-65
2021/06/30 01:05:49;;;;;;;86.03;79.18;;;;;;;;;;5033972;28;20052;-64
2021/06/30 01:08:17;;;;;;;88.07;81.38;;;;;;;;;;5032904;28;20022;-66
2021/06/30 01:10:44;;;;;;;85.55;78.95;;;;;;;;;;5033976;28;20494;-64
2021/06/30 01:13:11;;;;;;;75.60;69.35;;;;;;;;;;5034244;28;20071;-64
2021/06/30 01:15:54;;;;;;;78.45;71.97;;;;;;;;;;5034041;28;20100;-63
2021/06/30 01:18:25;;;;;;;72.30;66.60;;;;;;;;;;5034258;28;20421;-66
2021/06/30 01:20:52;;;;;;;67.97;62.38;;;;;;;;;;5034263;28;20363;-66
2021/06/30 01:23:20;;;;;;;71.57;66.10;;;;;;;;;;5034342;28;20025;-63
2021/06/30 01:25:48;;;;;;;74.13;68.80;;;;;;;;;;5034310;28;20478;-64
2021/06/30 01:28:16;;;;;;;78.60;73.10;;;;;;;;;;5034102;28;20026;-62
2021/06/30 01:30:44;;;;;;;80.10;74.50;;;;;;;;;;5032832;28;20021;-65
2021/06/30 01:33:11;;;;;;;80.38;74.78;;;;;;;;;;5034317;28;20478;-61
2021/06/30 01:35:39;;;;;;;74.05;68.55;;;;;;;;;;5034027;28;20454;-64
2021/06/30 01:38:06;;;;;;;77.82;72.20;;;;;;;;;;5034012;28;20052;-61
2021/06/30 01:40:33;;;;;;;75.10;69.82;;;;;;;;;;5034112;28;20029;-61
2021/06/30 01:43:01;;;;;;;63.13;58.22;;;;;;;;;;5033873;28;20092;-68
2021/06/30 01:45:28;;;;;;;60.00;55.50;;;;;;;;;;5033761;28;20057;-63
2021/06/30 01:47:56;;;;;;;57.05;52.35;;;;;;;;;;5033829;28;20021;-62
2021/06/30 01:50:23;;;;;;;56.35;51.78;;;;;;;;;;5033838;28;20018;-64
2021/06/30 01:52:50;;;;;;;58.63;54.00;;;;;;;;;;5033767;28;20017;-66
2021/06/30 01:55:17;;;;;;;61.67;57.08;;;;;;;;;;5033610;28;20025;-67
2021/06/30 01:57:46;;;;;;;70.95;66.15;;;;;;;;;;5033555;28;20037;-67
2021/06/30 02:00:14;;;;;;;65.32;60.63;;;;;;;;;;5033469;28;20486;-67
2021/06/30 02:02:41;;;;;;;62.78;58.17;;;;;;;;;;5033457;28;20426;-67
2021/06/30 02:05:34;;;;;;;54.55;50.45;;;;;;;;;;5033108;28;20400;-66
2021/06/30 02:08:02;;;;;;;53.55;49.78;;;;;;;;;;5033011;28;20034;-66
2021/06/30 02:10:29;;;;;;;47.67;44.28;;;;;;;;;;5033313;28;20017;-68
2021/06/30 02:12:57;;;;;;;47.70;44.15;;;;;;;;;;5033188;28;20096;-66
2021/06/30 02:15:29;;;;;;;54.28;50.80;;;;;;;;;;5033087;28;20339;-66
2021/06/30 02:17:57;;;;;;;51.63;48.30;;;;;;;;;;5033096;28;20017;-65
2021/06/30 02:20:24;;;;;;;48.80;45.80;;;;;;;;;;5031756;28;20029;-64
2021/06/30 02:22:52;;;;;;;46.47;43.47;;;;;;;;;;5033257;28;20029;-64
2021/06/30 02:25:21;;;;;;;49.08;46.00;;;;;;;;;;5032870;28;20029;-65
2021/06/30 02:27:48;;;;;;;47.25;44.25;;;;;;;;;;5033366;28;20028;-65
2021/06/30 02:30:18;;;;;;;43.28;40.60;;;;;;;;;;5033221;28;20370;-65
2021/06/30 02:32:46;;;;;;;42.63;39.97;;;;;;;;;;5033065;28;20409;-64
2021/06/30 02:35:15;;;;;;;41.08;38.28;;;;;;;;;;5033373;28;20030;-64
2021/06/30 02:37:42;;;;;;;43.95;41.45;;;;;;;;;;5032990;28;20025;-64
2021/06/30 02:40:11;;;;;;;44.28;41.67;;;;;;;;;;5033008;28;20021;-63
2021/06/30 02:42:38;;;;;;;46.28;43.35;;;;;;;;;;5032734;28;20025;-63
2021/06/30 02:45:07;;;;;;;52.58;48.95;;;;;;;;;;5032707;28;20026;-63
2021/06/30 02:47:34;;;;;;;50.58;47.47;;;;;;;;;;5032855;28;20033;-63
2021/06/30 02:50:02;;;;;;;56.47;52.88;;;;;;;;;;5032681;28;20497;-64
2021/06/30 02:52:29;;;;;;;59.03;55.42;;;;;;;;;;5031579;28;20025;-63
2021/06/30 02:54:56;;;;;;;51.67;48.38;;;;;;;;;;5032696;28;20037;-64
2021/06/30 02:57:23;;;;;;;48.53;45.45;;;;;;;;;;5032634;28;20025;-64
2021/06/30 02:59:50;;;;;;;50.75;47.60;;;;;;;;;;5032762;28;20048;-64
2021/06/30 03:02:17;;;;;;;47.03;43.95;;;;;;;;;;5032586;28;20079;-64
2021/06/30 03:04:44;;;;;;;43.83;40.85;;;;;;;;;;5032290;28;20045;-63
2021/06/30 03:07:12;;;;;;;43.65;40.60;;;;;;;;;;5032373;28;20498;-64
2021/06/30 03:09:39;;;;;;;43.80;40.70;;;;;;;;;;5032547;28;20018;-64
2021/06/30 03:12:06;;;;;;;43.55;40.42;;;;;;;;;;5032570;28;20028;-64
2021/06/30 03:14:33;;;;;;;43.28;40.20;;;;;;;;;;5032694;28;20030;-64
2021/06/30 03:17:00;;;;;;;43.15;40.03;;;;;;;;;;5032514;28;20025;-64
2021/06/30 03:19:27;;;;;;;44.58;41.60;;;;;;;;;;5032490;28;20022;-64
2021/06/30 03:21:54;;;;;;;43.75;40.83;;;;;;;;;;5032546;28;20397;-65
2021/06/30 03:24:22;;;;;;;47.38;44.25;;;;;;;;;;5032420;28;20022;-64
2021/06/30 03:26:49;;;;;;;46.47;43.40;;;;;;;;;;5032443;28;20101;-64
2021/06/30 03:29:16;;;;;;;47.45;44.10;;;;;;;;;;5032368;28;20478;-64
2021/06/30 03:31:43;;;;;;;50.67;47.08;;;;;;;;;;5032267;28;20028;-64
2021/06/30 03:34:10;;;;;;;53.83;50.20;;;;;;;;;;5032481;28;20458;-64
2021/06/30 03:36:38;;;;;;;57.20;53.20;;;;;;;;;;5033433;28;20053;-62
2021/06/30 03:39:05;;;;;;;50.75;47.00;;;;;;;;;;5036176;28;20029;-64
2021/06/30 03:41:32;;;;;;;54.78;51.15;;;;;;;;;;5036114;28;20029;-63
2021/06/30 03:44:00;;;;;;;52.80;49.33;;;;;;;;;;5036031;28;20032;-64
2021/06/30 03:46:27;;;;;;;54.45;50.67;;;;;;;;;;5036099;28;20026;-64
2021/06/30 03:48:54;;;;;;;57.80;53.83;;;;;;;;;;5035986;28;20382;-64
2021/06/30 03:51:21;;;;;;;54.55;50.63;;;;;;;;;;5035953;28;20017;-64
2021/06/30 03:53:48;;;;;;;58.00;54.10;;;;;;;;;;5035856;28;20018;-65
2021/06/30 03:56:15;;;;;;;54.63;50.85;;;;;;;;;;5035824;28;20454;-64
2021/06/30 03:58:43;;;;;;;55.75;51.88;;;;;;;;;;5035655;28;20032;-64
2021/06/30 04:01:10;;;;;;;60.92;56.75;;;;;;;;;;5035532;28;20091;-65
2021/06/30 04:03:37;;;;;;;59.13;54.80;;;;;;;;;;5035172;28;20020;-64
2021/06/30 04:06:04;;;;;;;61.47;57.30;;;;;;;;;;5035478;28;20028;-64
2021/06/30 04:08:31;;;;;;;58.92;54.60;;;;;;;;;;5035460;28;20022;-64
2021/06/30 04:10:58;;;;;;;57.28;52.65;;;;;;;;;;5035321;28;20423;-65
2021/06/30 04:13:26;;;;;;;58.67;54.08;;;;;;;;;;5035359;28;20045;-65
2021/06/30 04:15:53;;;;;;;56.72;52.60;;;;;;;;;;5035384;28;20029;-65
2021/06/30 04:18:20;;;;;;;57.00;52.75;;;;;;;;;;5035450;28;20079;-64
2021/06/30 04:20:47;;;;;;;60.40;55.92;;;;;;;;;;5035392;28;20029;-64
2021/06/30 04:23:14;;;;;;;61.38;56.50;;;;;;;;;;5035534;28;20496;-65
2021/06/30 04:25:42;;;;;;;59.53;54.92;;;;;;;;;;5035288;28;20122;-65
2021/06/30 04:28:09;;;;;;;58.88;54.58;;;;;;;;;;5035348;28;20440;-65
2021/06/30 04:30:36;;;;;;;56.90;52.28;;;;;;;;;;5035304;28;20024;-65
2021/06/30 04:33:03;;;;;;;53.90;49.83;;;;;;;;;;5035239;28;20029;-66
2021/06/30 04:35:30;;;;;;;56.15;52.20;;;;;;;;;;5035079;28;20053;-66
2021/06/30 04:37:57;;;;;;;55.42;51.30;;;;;;;;;;5034984;28;20033;-65
2021/06/30 04:40:25;;;;;;;53.65;49.80;;;;;;;;;;5034919;28;20033;-65
2021/06/30 04:42:52;;;;;;;55.20;51.42;;;;;;;;;;5033776;28;20042;-65
2021/06/30 04:45:19;;;;;;;57.63;53.47;;;;;;;;;;5034597;28;20036;-65
2021/06/30 04:47:46;;;;;;;59.65;55.35;;;;;;;;;;5034354;28;20056;-65
2021/06/30 04:50:14;;;;;;;60.33;56.03;;;;;;;;;;5034634;28;20026;-66
2021/06/30 04:52:41;;;;;;;57.80;53.53;;;;;;;;;;5034677;28;20021;-66
2021/06/30 04:55:09;;;;;;;60.35;56.00;;;;;;;;;;5034542;28;20029;-68
2021/06/30 04:57:37;;;;;;;60.10;56.00;;;;;;;;;;5034351;28;20531;-67
2021/06/30 05:00:07;;;;;;;60.35;56.08;;;;;;;;;;5033117;28;20036;-68
2021/06/30 05:02:34;;;;;;;59.75;55.72;;;;;;;;;;5034412;28;20025;-67
2021/06/30 05:05:01;;;;;;;58.90;54.63;;;;;;;;;;5033872;28;20045;-69
2021/06/30 05:07:29;;;;;;;58.35;54.25;;;;;;;;;;5034346;28;20056;-68
2021/06/30 05:09:56;;;;;;;57.67;53.60;;;;;;;;;;5034065;28;20017;-69
2021/06/30 05:12:23;;;;;;;57.95;53.95;;;;;;;;;;5034378;28;20018;-69
2021/06/30 05:14:50;;;;;;;57.10;52.88;;;;;;;;;;5034188;28;20509;-69
2021/06/30 05:17:17;;;;;;;57.20;53.00;;;;;;;;;;5034433;28;20026;-69
2021/06/30 05:19:44;;;;;;;56.55;52.45;;;;;;;;;;5034337;28;20029;-66
2021/06/30 05:22:12;;;;;;;57.17;53.08;;;;;;;;;;5034461;28;20017;-65
2021/06/30 05:24:39;;;;;;;56.40;52.30;;;;;;;;;;5034380;28;20025;-65
2021/06/30 05:27:06;;;;;;;55.03;50.67;;;;;;;;;;5034232;28;20470;-66
2021/06/30 05:29:33;;;;;;;57.45;53.08;;;;;;;;;;5033953;28;20114;-66
2021/06/30 05:32:00;;;;;;;58.60;54.20;;;;;;;;;;5034065;28;20053;-66
2021/06/30 05:34:28;;;;;;;55.72;51.72;;;;;;;;;;5034152;28;20030;-67
2021/06/30 05:36:55;;;;;;;66.32;62.10;;;;;;;;;;5033915;28;20068;-66
2021/06/30 05:39:22;;;;;;;56.17;51.88;;;;;;;;;;5033939;28;20030;-66
2021/06/30 05:41:50;;;;;;;60.72;56.30;;;;;;;;;;5033782;28;20108;-66
2021/06/30 05:44:17;;;;;;;62.25;58.10;;;;;;;;;;5033982;28;20060;-67
2021/06/30 05:46:45;;;;;;;59.22;55.05;;;;;;;;;;5034001;28;20028;-66
2021/06/30 05:49:12;;;;;;;60.92;56.63;;;;;;;;;;5033786;28;20033;-66
2021/06/30 05:51:43;;;;;;;57.40;53.20;;;;;;;;;;5033790;28;20026;-66
2021/06/30 05:54:11;;;;;;;54.92;51.05;;;;;;;;;;5034056;28;20078;-67
2021/06/30 05:56:39;;;;;;;57.20;53.40;;;;;;;;;;5033666;28;20029;-66
2021/06/30 05:59:06;;;;;;;53.67;49.95;;;;;;;;;;5033119;28;20021;-67
2021/06/30 06:01:34;;;;;;;53.92;50.15;;;;;;;;;;5033596;28;20025;-66
2021/06/30 06:04:01;;;;;;;60.70;56.83;;;;;;;;;;5033201;28;20128;-67
2021/06/30 06:06:28;;;;;;;64.75;60.50;;;;;;;;;;5033424;28;20032;-67
2021/06/30 06:08:55;;;;;;;65.70;61.88;;;;;;;;;;5033491;28;20148;-67
2021/06/30 06:11:23;;;;;;;67.65;63.60;;;;;;;;;;5033397;28;20104;-67
2021/06/30 06:13:50;;;;;;;66.07;62.08;;;;;;;;;;5033560;28;20047;-65
2021/06/30 06:16:20;;;;;;;68.07;63.92;;;;;;;;;;5033380;28;20025;-65
2021/06/30 06:18:48;;;;;;;64.60;60.50;;;;;;;;;;5033406;28;20028;-65
2021/06/30 06:21:15;;;;;;;59.30;55.40;;;;;;;;;;5033213;28;20132;-65
2021/06/30 06:23:43;;;;;;;59.80;56.03;;;;;;;;;;5033008;28;20056;-65
2021/06/30 06:26:12;;;;;;;60.60;56.72;;;;;;;;;;5033208;28;20425;-65
2021/06/30 06:28:39;;;;;;;53.78;49.78;;;;;;;;;;5033490;28;20036;-65
2021/06/30 06:31:12;;;;;;;55.25;51.35;;;;;;;;;;5033270;28;20454;-66
2021/06/30 06:33:39;;;;;;;52.95;49.15;;;;;;;;;;5033595;28;20017;-65
2021/06/30 06:36:06;;;;;;;52.35;48.42;;;;;;;;;;5033032;28;20018;-65
2021/06/30 06:38:33;;;;;;;52.95;48.75;;;;;;;;;;5033269;28;20017;-65
2021/06/30 06:41:00;;;;;;;49.55;45.83;;;;;;;;;;5033384;28;20017;-65
2021/06/30 06:43:28;;;;;;;52.75;48.97;;;;;;;;;;5032973;28;20024;-65
2021/06/30 06:45:55;;;;;;;53.33;49.45;;;;;;;;;;5032996;28;20032;-66
2021/06/30 06:48:22;;;;;;;54.08;49.92;;;;;;;;;;5033029;28;20025;-64
2021/06/30 06:50:49;;;;;;;54.92;51.13;;;;;;;;;;5032834;28;20479;-65
2021/06/30 06:53:16;;;;;;;53.42;49.63;;;;;;;;;;5032862;28;20025;-64
2021/06/30 06:55:43;;;;;;;57.03;52.65;;;;;;;;;;5032816;28;20033;-65
2021/06/30 06:58:10;;;;;;;58.30;54.10;;;;;;;;;;5032902;28;20554;-65
2021/06/30 07:00:38;;;;;;;58.78;54.58;;;;;;;;;;5032694;28;20029;-65
2021/06/30 07:03:05;;;;;;;61.60;57.45;;;;;;;;;;5032775;28;20174;-67
2021/06/30 07:05:32;;;;;;;62.08;57.88;;;;;;;;;;5032721;28;20077;-67
2021/06/30 07:07:59;;;;;;;63.65;59.05;;;;;;;;;;5032811;28;20144;-65
2021/06/30 07:10:26;;;;;;;63.85;59.20;;;;;;;;;;5033585;28;20032;-65
2021/06/30 07:12:53;;;;;;;59.10;54.80;;;;;;;;;;5036665;28;20025;-66
2021/06/30 07:15:20;;;;;;;56.83;52.35;;;;;;;;;;5036944;28;20052;-67
2021/06/30 07:17:48;;;;;;;57.22;52.90;;;;;;;;;;5037069;28;20032;-67
2021/06/30 07:20:15;;;;;;;56.72;52.30;;;;;;;;;;5037036;28;20104;-67
2021/06/30 07:22:42;;;;;;;56.60;52.22;;;;;;;;;;5036872;28;20060;-67
2021/06/30 07:25:09;;;;;;;61.50;56.83;;;;;;;;;;5036978;28;20033;-67
2021/06/30 07:27:36;;;;;;;58.63;54.05;;;;;;;;;;5036767;28;20017;-67
2021/06/30 07:30:04;;;;;;;61.28;56.83;;;;;;;;;;5036621;28;20041;-67
2021/06/30 07:32:31;;;;;;;59.33;54.95;;;;;;;;;;5036837;28;20022;-67
2021/06/30 07:34:59;;;;;;;57.70;53.40;;;;;;;;;;5036499;28;20101;-67
2021/06/30 07:37:26;;;;;;;57.58;53.15;;;;;;;;;;5036867;28;20429;-67
2021/06/30 07:39:53;;;;;;;57.42;52.88;;;;;;;;;;5036339;28;20021;-67
2021/06/30 07:42:21;;;;;;;54.53;49.95;;;;;;;;;;5036298;28;20025;-68
2021/06/30 07:44:49;;;;;;;54.15;49.85;;;;;;;;;;5036216;28;20054;-67
2021/06/30 07:47:17;;;;;;;51.03;46.78;;;;;;;;;;5036276;28;20389;-67
2021/06/30 07:49:44;;;;;;;50.25;46.00;;;;;;;;;;5036442;28;20029;-68
2021/06/30 07:52:11;;;;;;;53.88;49.40;;;;;;;;;;5036540;28;20018;-68
2021/06/30 07:54:38;;;;;;;56.50;52.03;;;;;;;;;;5036016;28;20022;-67
2021/06/30 07:57:05;;;;;;;53.10;48.90;;;;;;;;;;5036167;28;20057;-67
2021/06/30 07:59:32;;;;;;;57.78;53.05;;;;;;;;;;5036330;28;20105;-67
2021/06/30 08:02:00;;;;;;;62.60;57.58;;;;;;;;;;5035921;28;20111;-67
2021/06/30 08:04:27;;;;;;;55.42;50.15;;;;;;;;;;5035899;28;20099;-65
2021/06/30 08:06:54;;;;;;;55.05;50.33;;;;;;;;;;5036302;28;20022;-68
2021/06/30 08:09:21;;;;;;;55.30;50.70;;;;;;;;;;5035954;28;20025;-64
2021/06/30 08:11:48;;;;;;;55.80;50.90;;;;;;;;;;5035875;28;20466;-68
2021/06/30 08:14:15;;;;;;;54.03;48.97;;;;;;;;;;5035851;28;20092;-70
2021/06/30 08:16:43;;;;;;;61.35;56.10;;;;;;;;;;5035849;28;20033;-68
2021/06/30 08:19:10;;;;;;;57.03;52.00;;;;;;;;;;5035767;28;20367;-68
2021/06/30 08:21:37;;;;;;;57.83;53.00;;;;;;;;;;5035575;28;20105;-69
2021/06/30 08:24:05;;;;;;;57.72;53.20;;;;;;;;;;5035162;28;20025;-68
2021/06/30 08:26:32;;;;;;;59.08;54.15;;;;;;;;;;5035554;28;20021;-67
2021/06/30 08:28:59;;;;;;;58.78;53.97;;;;;;;;;;5035471;28;20104;-65
2021/06/30 08:31:27;;;;;;;56.58;51.60;;;;;;;;;;5035403;28;20025;-66
2021/06/30 08:33:54;;;;;;;58.83;54.13;;;;;;;;;;5035389;28;20021;-67
2021/06/30 08:36:21;;;;;;;59.67;54.80;;;;;;;;;;5035335;28;20017;-66
2021/06/30 08:38:48;;;;;;;59.20;54.40;;;;;;;;;;5035259;28;20383;-67
2021/06/30 08:41:17;;;;;;;58.63;53.65;;;;;;;;;;5035142;28;20036;-67
2021/06/30 08:43:45;;;;;;;59.17;54.17;;;;;;;;;;5035206;28;20123;-65
2021/06/30 08:46:16;;;;;;;60.92;56.17;;;;;;;;;;5035132;28;20033;-65
2021/06/30 08:48:43;;;;;;;61.10;55.83;;;;;;;;;;5035215;28;20021;-66
2021/06/30 08:51:12;;;;;;;59.90;54.92;;;;;;;;;;5035151;28;20033;-66
2021/06/30 08:53:44;;;;;;;63.45;58.08;;;;;;;;;;5035146;28;20060;-65
2021/06/30 08:56:11;;;;;;;58.65;53.30;;;;;;;;;;5035103;28;20390;-66
2021/06/30 08:58:38;;;;;;;60.47;55.28;;;;;;;;;;5035038;28;20021;-65
2021/06/30 09:01:05;;;;;;;66.05;60.75;;;;;;;;;;5034840;28;20025;-64
2021/06/30 09:03:32;;;;;;;62.08;56.85;;;;;;;;;;5033120;28;20072;-67
2021/06/30 09:06:12;;;;;;;63.08;57.67;;;;;;;;;;5034604;28;20021;-66
2021/06/30 09:08:45;;;;;;;63.50;58.28;;;;;;;;;;5034880;28;20048;-66
2021/06/30 09:11:13;;;;;;;63.80;58.40;;;;;;;;;;5033582;28;20026;-65
2021/06/30 09:13:40;;;;;;;65.32;59.85;;;;;;;;;;5033260;28;20018;-66
2021/06/30 09:16:07;;;;;;;64.20;58.90;;;;;;;;;;5034459;28;20029;-66
2021/06/30 09:18:40;;;;;;;59.25;54.25;;;;;;;;;;5034484;28;20033;-65
2021/06/30 09:21:25;;;;;;;63.10;57.47;;;;;;;;;;5034454;28;20115;-65
2021/06/30 09:24:01;;;;;;;62.72;57.40;;;;;;;;;;5033205;28;20037;-65
2021/06/30 09:26:31;;;;;;;58.80;53.30;;;;;;;;;;5034298;28;20037;-65
2021/06/30 09:29:09;;;;;;;72.45;66.78;;;;;;;;;;5034341;28;20017;-66
2021/06/30 09:31:37;;;;;;;62.63;57.22;;;;;;;;;;5034376;28;20036;-66
2021/06/30 09:34:05;;;;;;;62.70;57.10;;;;;;;;;;5033279;28;20017;-66
2021/06/30 09:36:43;;;;;;;65.25;59.53;;;;;;;;;;5034315;28;20026;-66
2021/06/30 09:39:11;;;;;;;67.45;62.10;;;;;;;;;;5034260;28;20410;-65
2021/06/30 09:41:39;;;;;;;67.65;62.28;;;;;;;;;;5033046;28;20406;-65
2021/06/30 09:44:13;;;;;;;67.07;61.60;;;;;;;;;;5032709;28;20104;-66
2021/06/30 09:46:42;;;;;;;65.30;59.65;;;;;;;;;;5034038;28;20025;-65
2021/06/30 09:49:19;;;;;;;63.33;57.72;;;;;;;;;;5033864;28;20029;-65
2021/06/30 09:51:47;;;;;;;67.30;61.60;;;;;;;;;;5033765;28;20501;-63
2021/06/30 09:54:15;;;;;;;64.90;59.17;;;;;;;;;;5033683;28;20025;-63
2021/06/30 09:56:56;;;;;;;64.75;59.20;;;;;;;;;;5033695;28;20567;-63
2021/06/30 09:59:27;;;;;;;60.97;55.55;;;;;;;;;;5032472;28;20025;-64
2021/06/30 10:02:00;;;;;;;60.60;55.08;;;;;;;;;;5033580;28;20026;-64
2021/06/30 10:04:31;;;;;;;66.63;60.92;;;;;;;;;;5033421;28;20049;-65
2021/06/30 10:07:02;;;;;;;66.85;61.03;;;;;;;;;;5033453;28;20072;-63
2021/06/30 10:09:29;;;;;;;65.40;59.70;;;;;;;;;;5033556;28;20030;-65
2021/06/30 10:11:58;;;;;;;62.33;56.92;;;;;;;;;;5033497;28;20449;-65
2021/06/30 10:14:26;;;;;;;65.00;59.40;;;;;;;;;;5033390;28;20029;-68
2021/06/30 10:16:53;;;;;;;62.05;56.55;;;;;;;;;;5033376;28;20393;-64
2021/06/30 10:19:20;;;;;;;63.28;57.67;;;;;;;;;;5033308;28;20406;-65
2021/06/30 10:21:47;;;;;;;61.97;56.78;;;;;;;;;;5033269;28;20026;-64
2021/06/30 10:24:15;;;;;;;74.78;68.45;;;;;;;;;;5033133;28;20025;-65
2021/06/30 10:26:43;;;;;;;65.65;60.30;;;;;;;;;;5033217;28;20056;-65
2021/06/30 10:29:10;;;;;;;63.50;58.25;;;;;;;;;;5033064;28;20025;-64
2021/06/30 10:31:38;;;;;;;65.20;60.00;;;;;;;;;;5033224;28;20018;-65
2021/06/30 10:34:14;;;;;;;64.20;58.60;;;;;;;;;;5031721;28;20033;-63
2021/06/30 10:36:52;;;;;;;65.35;59.22;;;;;;;;;;5032965;28;20386;-67
2021/06/30 10:39:20;;;;;;;62.67;57.30;;;;;;;;;;5032982;28;20029;-67
2021/06/30 10:41:53;;;;;;;64.25;58.65;;;;;;;;;;5032740;28;20028;-67
2021/06/30 10:44:20;;;;;;;63.50;57.83;;;;;;;;;;5032895;28;20092;-65
2021/06/30 10:46:48;;;;;;;65.03;59.25;;;;;;;;;;5032586;28;20044;-64
2021/06/30 10:49:15;;;;;;;65.28;59.42;;;;;;;;;;5032889;28;20026;-65
2021/06/30 10:51:43;;;;;;;65.38;59.80;;;;;;;;;;5032867;28;20036;-65
2021/06/30 10:54:28;;;;;;;68.68;63.15;;;;;;;;;;5032889;28;20029;-65
2021/06/30 10:57:13;;;;;;;67.07;61.63;;;;;;;;;;5032918;28;20092;-66
2021/06/30 10:59:58;;;;;;;66.38;61.05;;;;;;;;;;5032847;28;20026;-64
2021/06/30 11:02:26;;;;;;;65.68;60.08;;;;;;;;;;5032793;28;20048;-64
2021/06/30 11:04:54;;;;;;;67.78;62.30;;;;;;;;;;5032430;28;20107;-65
2021/06/30 11:07:33;;;;;;;65.90;60.07;;;;;;;;;;5032478;28;20124;-65
2021/06/30 11:10:20;;;;;;;69.05;62.95;;;;;;;;;;5032590;28;20025;-64
2021/06/30 11:12:53;;;;;;;69.57;63.40;;;;;;;;;;5032716;28;20022;-65
2021/06/30 11:15:40;;;;;;;68.18;62.28;;;;;;;;;;5032821;28;20413;-65
2021/06/30 11:18:13;;;;;;;67.63;61.83;;;;;;;;;;5031288;28;20026;-65
2021/06/30 11:20:45;;;;;;;68.20;62.30;;;;;;;;;;5031195;28;20029;-64
2021/06/30 11:23:22;;;;;;;67.70;61.60;;;;;;;;;;5032840;28;20032;-65
2021/06/30 11:25:50;;;;;;;63.00;57.38;;;;;;;;;;5032555;28;20098;-65
2021/06/30 11:28:35;;;;;;;64.10;58.40;;;;;;;;;;5032678;28;20021;-64
2021/06/30 11:31:22;;;;;;;69.28;62.83;;;;;;;;;;5032593;28;20040;-67
2021/06/30 11:34:17;;;;;;;64.03;58.00;;;;;;;;;;5031821;28;20560;-65
2021/06/30 11:36:45;;;;;;;72.30;66.28;;;;;;;;;;5032466;28;20025;-65
2021/06/30 11:39:14;;;;;;;65.90;59.88;;;;;;;;;;5032410;28;20028;-65
2021/06/30 11:41:52;;;;;;;63.90;58.53;;;;;;;;;;5032366;28;20051;-65
2021/06/30 11:44:21;;;;;;;67.82;61.92;;;;;;;;;;5032291;28;20029;-65
2021/06/30 11:46:52;;;;;;;66.28;60.40;;;;;;;;;;5032389;28;20021;-65
2021/06/30 11:49:20;;;;;;;73.68;67.95;;;;;;;;;;5032500;28;20045;-65
2021/06/30 11:52:05;;;;;;;64.18;58.50;;;;;;;;;;5032275;28;20139;-66
2021/06/30 11:54:32;;;;;;;64.03;58.63;;;;;;;;;;5032232;28;20041;-65
2021/06/30 11:57:06;;;;;;;62.70;57.20;;;;;;;;;;5032321;28;20025;-65
2021/06/30 11:59:36;;;;;;;65.65;59.53;;;;;;;;;;5034685;28;20029;-64
2021/06/30 12:02:04;;;;;;;68.85;62.53;;;;;;;;;;5035964;28;20026;-64
2021/06/30 12:04:32;;;;;;;66.20;60.22;;;;;;;;;;5035600;28;20065;-65
2021/06/30 12:07:00;;;;;;;75.57;69.35;;;;;;;;;;5034664;28;20390;-65
2021/06/30 12:09:30;;;;;;;71.97;65.60;;;;;;;;;;5035821;28;20017;-64
2021/06/30 12:12:08;;;;;;;73.53;67.15;;;;;;;;;;5035856;28;20017;-65
2021/06/30 12:14:38;;;;;;;71.75;65.43;;;;;;;;;;5035816;28;20029;-64
2021/06/30 12:17:05;;;;;;;67.43;61.80;;;;;;;;;;5035628;28;20505;-65
2021/06/30 12:19:40;;;;;;;68.13;62.03;;;;;;;;;;5035732;28;20112;-64
2021/06/30 12:22:21;;;;;;;70.40;64.30;;;;;;;;;;5035549;28;20022;-64
2021/06/30 12:24:48;;;;;;;;;;;;;;;;;;5035983;28;20091;-67
2021/06/30 12:27:15;;;;;;;64.43;58.67;;;;;;;;;;5035584;28;19947;-63
2021/06/30 12:29:42;;;;;;;66.05;59.58;;;;;;;;;;5035572;28;20037;-63
2021/06/30 12:32:14;;;;;;;68.82;62.20;;;;;;;;;;5035509;28;20029;-64
2021/06/30 12:34:44;;;;;;;66.07;60.22;;;;;;;;;;5035502;28;20414;-65
2021/06/30 12:37:21;;;;;;;64.93;59.40;;;;;;;;;;5035507;28;20087;-64
2021/06/30 12:39:53;;;;;;;66.25;60.40;;;;;;;;;;5035427;28;20040;-64
2021/06/30 12:42:20;;;;;;;68.13;62.42;;;;;;;;;;5035269;28;20390;-64
2021/06/30 12:45:02;;;;;;;71.38;65.63;;;;;;;;;;5035180;28;20151;-63
2021/06/30 12:47:29;;;;;;;71.15;65.55;;;;;;;;;;5035193;28;20433;-64
2021/06/30 12:49:57;;;;;;;67.40;61.65;;;;;;;;;;5035126;28;20072;-64
2021/06/30 12:52:24;;;;;;;71.43;64.07;;;;;;;;;;5035057;28;20067;-64
2021/06/30 12:55:04;;;;;;;70.63;64.88;;;;;;;;;;5034926;28;20574;-64
2021/06/30 12:57:31;;;;;;;72.50;66.43;;;;;;;;;;5035009;28;20026;-63
2021/06/30 13:00:11;;;;;;;66.50;61.10;;;;;;;;;;5034945;28;20027;-65
2021/06/30 13:02:38;;;;;;;67.72;62.05;;;;;;;;;;5034943;28;20393;-65
2021/06/30 13:05:25;;;;;;;67.70;61.67;;;;;;;;;;5034519;28;20057;-65
2021/06/30 13:07:54;;;;;;;68.05;62.17;;;;;;;;;;5034633;28;20022;-64
2021/06/30 13:10:21;;;;;;;69.00;62.45;;;;;;;;;;5034704;28;20030;-64
2021/06/30 13:12:49;;;;;;;68.57;62.88;;;;;;;;;;5034761;28;20033;-64
2021/06/30 13:15:23;;;;;;;69.28;63.00;;;;;;;;;;5034621;28;20026;-64
2021/06/30 13:17:50;;;;;;;68.43;62.15;;;;;;;;;;5034580;28;20029;-64
2021/06/30 13:20:18;;;;;;;66.45;60.50;;;;;;;;;;5034595;28;20034;-64
2021/06/30 13:22:46;;;;;;;73.00;66.60;;;;;;;;;;5034569;28;20021;-64
2021/06/30 13:25:29;;;;;;;70.05;64.05;;;;;;;;;;5034288;28;20033;-63
2021/06/30 13:28:14;;;;;;;68.82;62.65;;;;;;;;;;5033195;28;20444;-64
2021/06/30 13:36:14;;;;;;;77.00;70.43;;;;;;;;;;5034383;28;20032;-65
2021/06/30 13:38:47;;;;;;;74.78;68.47;;;;;;;;;;5034199;28;20021;-65
2021/06/30 13:41:19;;;;;;;74.72;68.10;;;;;;;;;;5034181;28;20028;-65
2021/06/30 13:43:48;;;;;;;74.60;68.38;;;;;;;;;;5034146;28;20428;-65
2021/06/30 13:46:16;;;;;;;71.18;65.00;;;;;;;;;;5034043;28;20057;-65
2021/06/30 13:48:44;;;;;;;70.53;64.43;;;;;;;;;;5034010;28;20030;-65
2021/06/30 13:51:14;;;;;;;70.85;64.55;;;12.50;99.90;;;;;;5033964;28;20025;-65
2021/06/30 13:53:46;;;;;;;68.32;62.13;;;12.60;99.90;;;;;;5034010;28;20482;-65
2021/06/30 13:56:15;;;;;;;72.07;65.72;;;12.60;99.90;;;;;;5034028;28;20567;-65
2021/06/30 13:58:44;;;;;;;72.90;66.53;;;12.60;99.90;;;;;;5033827;28;20029;-65
2021/06/30 14:01:13;;;;;;;70.10;63.83;;;12.50;99.90;;;;;;5033874;28;20389;-64
2021/06/30 14:03:40;;;;;;;72.82;66.65;;;12.50;99.90;;;;;;5033672;28;20476;-63
2021/06/30 14:06:08;;;;;;;68.07;62.17;;;12.50;99.90;;;;;;5033725;28;20116;-64
2021/06/30 14:08:36;;;;;;;73.10;67.05;;;12.50;99.90;;;;;;5033731;28;20520;-64
2021/06/30 14:11:06;;;;;;;69.45;63.67;;;12.40;99.90;;;;;;5033556;28;20439;-64
2021/06/30 14:13:34;;;;;;;72.38;66.22;;;12.40;99.90;;;;;;5033627;28;20386;-64
2021/06/30 14:16:01;;;;;;;69.70;64.00;;;12.40;99.90;;;;;;5033537;28;20026;-63
2021/06/30 14:18:29;;;;;;;70.53;64.60;;;;;;;;;;5033598;28;20040;-64
2021/06/30 14:20:56;;;;;;;72.18;66.28;;;;;;;;;;5032818;28;20030;-63
2021/06/30 14:23:25;;;;;;;68.53;62.38;;;;;;;;;;5033422;28;20025;-63
2021/06/30 14:25:53;;;;;;;69.35;63.33;;;;;;;;;;5033168;28;20025;-63
2021/06/30 14:28:21;;;;;;;72.07;65.57;;;;;;;;;;5033299;28;20017;-63
2021/06/30 14:30:50;;;;;;;71.88;65.45;;;;;;;;;;5033189;28;20561;-64